Charleston, SC

17:46 EDT le 27 mai 2015 (GMT -0400)
Seaside Plantation | | Change Station
CLOSE
Current Station
Stations météorologiques personnelles
Location: James Island, SC
Altitude: 35 ft
Stations météo à proximité

Alt. 35 ft 32.71 °N, 79.95 °W | Updated 7 seconds ago

Ciel dégagé
Ciel dégagé
83.9 ° F
Paraît 89 ° F
N
6.0
Vent Variable Vent de Sud
Gusts 7.0 mph

Aujourd'hui
Haut(e) -- | Bas -- ° F
--% Risque de précip.
Hier
Haut(e) -- | Bas -- ° F
Precip. -- pouce
6:14 AM 8:19 PM
Lune gibbeuse croissante, 70% visible
Pression 30.20 pouce
Visibilité 10.0 Miles terrestres
Nuages Peu 2800 ft
indice de chaleur 89 ° F
Point de rosée 72 ° F
Humidité 67%
Précipitations 0.00 pouce
Profondeur de la couche neigeuse Non disponible.
UV 4 sur 12
Pollen 5.80 sur 12
Qualité de l'air Non disponible.
Flu Activity Local Activity
METAR KJZI 272135Z AUTO 15005KT 10SM FEW028 27/20 A3020 RMK A02 P000

More Conditions Fewer Conditions

Pression 30.20 pouce
Visibilité 10.0 Miles terrestres
Nuages Peu 2800 ft
indice de chaleur 89 ° F
Point de rosée 72 ° F
Humidité 67%
Précipitations 0.00 pouce
Profondeur de la couche neigeuse Non disponible.
UV 4 sur 12
Pollen 5.80 sur 12
Qualité de l'air Non disponible.
Flu Activity Local Activity
METAR KJZI 272135Z AUTO 15005KT 10SM FEW028 27/20 A3020 RMK A02 P000

More Conditions Fewer Conditions

10-Day Weather Forecast

Almanac

Astronomie

May. 27, 2015 Lever Coucher
Temps réel
Crépuscule civil
Crépuscule nautique
Crépuscule astronomique
Lune
Durée de lumière visible
Longueur du jour
Tomorrow will be .
, % of the Moon is Illuminated

Extrêmes aujourd'hui

State Highs State Lows

Community

WunderPhotos

Upload Photos

1,824,805 Photos téléchargées !

WunderBlogs® & News

Nearby

Qualité de l'air

  Qualité de l'air Indice de la qualité de l'air Polluant
Not available.

Épaisseur de neige

Station Depth Altitude

Activité sismique

Ville Distance Mag. Time & Date
Minimum magnitude displayed is 2.5.

Températures des eaux côtières

Lieu Température

Stations

Stations météo à proximité

Emplacement de la station Température Refroidissement éolien Point de rosée Humidité Vent Precip. Alt. Mise à jour Type